Time;durP1;ratioP1;P1;durP2;ratioP2;P2;SDS_P1;SDS_P2;PMS_P1;PMS_P2;Temp;Humidity;BMP_temperature;BMP_pressure;BME280_temperature;BME280_humidity;BME280_pressure;Samples;Min_cycle;Max_cycle;Signal;HPM_P1;HPM_P2
2022/07/24 00:00:17;;;;;;;4.40;2.58;;;;;;;;;;5033309;28;20045;-80
2022/07/24 00:03:02;;;;;;;3.92;2.70;;;;;;;;;;5044857;28;20045;-80
2022/07/24 00:05:48;;;;;;;3.80;2.75;;;;;;;;;;5033198;28;20101;-80
2022/07/24 00:08:34;;;;;;;5.47;3.15;;;;;;;;;;5032984;28;20120;-81
2022/07/24 00:11:20;;;;;;;4.18;3.13;;;;;;;;;;5045116;28;20191;-80
2022/07/24 00:14:05;;;;;;;3.55;2.80;;;;;;;;;;5044819;28;20426;-80
2022/07/24 00:16:51;;;;;;;5.13;3.08;;;;;;;;;;5033266;28;20037;-80
2022/07/24 00:19:37;;;;;;;4.10;3.10;;;;;;;;;;5032203;28;20030;-80
2022/07/24 00:22:23;;;;;;;4.70;3.10;;;;;;;;;;5031908;28;20191;-81
2022/07/24 00:25:09;;;;;;;5.28;2.72;;;;;;;;;;5032883;28;20116;-80
2022/07/24 00:27:55;;;;;;;4.57;2.70;;;;;;;;;;5033000;28;20571;-80
2022/07/24 00:30:40;;;;;;;5.38;3.00;;;;;;;;;;5044153;28;20049;-81
2022/07/24 00:33:26;;;;;;;3.78;2.63;;;;;;;;;;5032669;28;20041;-80
2022/07/24 00:36:12;;;;;;;4.40;2.85;;;;;;;;;;5032049;28;20415;-80
2022/07/24 00:38:57;;;;;;;3.78;2.30;;;;;;;;;;5032210;28;20045;-80
2022/07/24 00:41:43;;;;;;;4.45;3.10;;;;;;;;;;5031478;28;20037;-81
2022/07/24 00:44:29;;;;;;;4.07;2.53;;;;;;;;;;5032146;28;20034;-80
2022/07/24 00:47:14;;;;;;;3.40;2.45;;;;;;;;;;5032304;28;20065;-80
2022/07/24 00:50:02;;;;;;;4.53;2.90;;;;;;;;;;5032111;28;20072;-80
2022/07/24 00:52:47;;;;;;;3.47;2.60;;;;;;;;;;5030748;28;20037;-80
2022/07/24 00:55:33;;;;;;;3.65;2.30;;;;;;;;;;5032140;28;20038;-80
2022/07/24 00:58:19;;;;;;;3.70;2.70;;;;;;;;;;5045191;28;20939;-79
2022/07/24 01:01:05;;;;;;;4.03;2.60;;;;;;;;;;5032175;28;20144;-80
2022/07/24 01:03:51;;;;;;;3.58;2.42;;;;;;;;;;5032005;28;20045;-81
2022/07/24 01:06:36;;;;;;;3.85;2.92;;;;;;;;;;5032020;28;20537;-80
2022/07/24 01:09:22;;;;;;;4.05;2.58;;;;;;;;;;5032043;28;20030;-80
2022/07/24 01:12:08;;;;;;;3.50;2.25;;;;;;;;;;5031949;28;20095;-80
2022/07/24 01:14:53;;;;;;;4.60;2.83;;;;;;;;;;5043963;28;20091;-79
2022/07/24 01:17:40;;;;;;;3.80;2.75;;;;;;;;;;5032062;28;20096;-79
2022/07/24 01:20:26;;;;;;;4.05;2.50;;;;;;;;;;5044884;28;20108;-80
2022/07/24 01:23:11;;;;;;;4.60;2.90;;;;;;;;;;5044478;28;20553;-80
2022/07/24 01:25:57;;;;;;;4.50;2.55;;;;;;;;;;5032047;28;20570;-80
2022/07/24 01:28:43;;;;;;;4.07;2.47;;;;;;;;;;5031697;28;20037;-79
2022/07/24 01:31:28;;;;;;;4.18;2.63;;;;;;;;;;5031512;28;20459;-80
2022/07/24 01:34:14;;;;;;;3.15;2.10;;;;;;;;;;5030534;28;20476;-80
2022/07/24 01:37:00;;;;;;;3.83;2.70;;;;;;;;;;5030974;28;20124;-80
2022/07/24 01:39:46;;;;;;;3.65;2.60;;;;;;;;;;5030860;28;20037;-79
2022/07/24 01:42:31;;;;;;;4.28;3.13;;;;;;;;;;5030379;28;20038;-80
2022/07/24 01:45:17;;;;;;;3.65;2.30;;;;;;;;;;5031620;28;20558;-80
2022/07/24 01:48:03;;;;;;;4.25;2.63;;;;;;;;;;5037275;28;20555;-80
2022/07/24 01:50:49;;;;;;;3.95;3.05;;;;;;;;;;5037309;28;20034;-80
2022/07/24 01:53:35;;;;;;;4.38;3.08;;;;;;;;;;5036926;28;20052;-80
2022/07/24 01:56:20;;;;;;;3.70;2.78;;;;;;;;;;5038079;28;20046;-80
2022/07/24 01:59:06;;;;;;;3.90;2.50;;;;;;;;;;5049527;28;20502;-79
2022/07/24 02:01:52;;;;;;;4.47;2.50;;;;;;;;;;5037607;28;20068;-80
2022/07/24 02:04:37;;;;;;;3.10;2.28;;;;;;;;;;5037100;28;20041;-80
2022/07/24 02:07:23;;;;;;;4.95;2.65;;;;;;;;;;5037652;28;20047;-80
2022/07/24 02:10:10;;;;;;;3.30;2.22;;;;;;;;;;5037885;28;20033;-80
2022/07/24 02:12:56;;;;;;;4.25;2.63;;;;;;;;;;5023731;28;20049;-79
2022/07/24 02:15:41;;;;;;;3.20;2.22;;;;;;;;;;5037716;28;20424;-80
2022/07/24 02:18:27;;;;;;;3.97;2.58;;;;;;;;;;5037300;28;20065;-80
2022/07/24 02:21:13;;;;;;;3.60;2.58;;;;;;;;;;5049347;28;20034;-80
2022/07/24 02:23:59;;;;;;;4.38;2.92;;;;;;;;;;5050150;28;20397;-80
2022/07/24 02:26:45;;;;;;;3.67;2.75;;;;;;;;;;5050660;28;20038;-79
2022/07/24 02:29:30;;;;;;;4.28;2.20;;;;;;;;;;5036745;28;20045;-80
2022/07/24 02:32:16;;;;;;;3.10;2.35;;;;;;;;;;5037556;28;20052;-80
2022/07/24 02:35:02;;;;;;;3.90;2.80;;;;;;;;;;5037600;28;20088;-80
2022/07/24 02:37:48;;;;;;;3.10;2.10;;;;;;;;;;5037959;28;20034;-80
2022/07/24 02:40:34;;;;;;;4.22;2.90;;;;;;;;;;5037748;28;20045;-80
2022/07/24 02:43:19;;;;;;;3.42;2.30;;;;;;;;;;5051212;28;20507;-79
2022/07/24 02:46:05;;;;;;;4.93;2.35;;;;;;;;;;5037010;28;20440;-79
2022/07/24 02:48:51;;;;;;;2.80;1.83;;;;;;;;;;5037431;28;20034;-80
2022/07/24 02:51:37;;;;;;;3.10;2.28;;;;;;;;;;5051438;28;20037;-80
2022/07/24 02:54:23;;;;;;;3.40;2.40;;;;;;;;;;5050607;28;20048;-79
2022/07/24 02:57:08;;;;;;;3.15;2.15;;;;;;;;;;5048694;28;20045;-80
2022/07/24 02:59:54;;;;;;;2.97;2.17;;;;;;;;;;5034148;28;20029;-80
2022/07/24 03:02:40;;;;;;;3.72;2.17;;;;;;;;;;5046426;28;20049;-83
2022/07/24 03:05:25;;;;;;;4.00;2.30;;;;;;;;;;5034494;28;20041;-80
2022/07/24 03:08:11;;;;;;;2.72;2.00;;;;;;;;;;5048443;28;20481;-80
2022/07/24 03:10:57;;;;;;;3.75;2.53;;;;;;;;;;5033490;28;20499;-79
2022/07/24 03:13:42;;;;;;;3.63;2.47;;;;;;;;;;5033879;28;20037;-80
2022/07/24 03:16:28;;;;;;;4.50;2.60;;;;;;;;;;5033245;28;20033;-80
2022/07/24 03:19:14;;;;;;;3.38;2.33;;;;;;;;;;5044770;28;20042;-79
2022/07/24 03:22:00;;;;;;;3.53;2.03;;;;;;;;;;5045403;28;20087;-80
2022/07/24 03:24:45;;;;;;;3.67;2.47;;;;;;;;;;5034245;28;20427;-80
2022/07/24 03:27:31;;;;;;;3.72;2.42;;;;;;;;;;5034156;28;20109;-80
2022/07/24 03:30:17;;;;;;;2.85;1.98;;;;;;;;;;5033415;28;20041;-80
2022/07/24 03:33:03;;;;;;;3.00;2.22;;;;;;;;;;5033327;28;20077;-80
2022/07/24 03:35:48;;;;;;;3.47;2.38;;;;;;;;;;5046855;28;20068;-79
2022/07/24 03:38:34;;;;;;;3.67;2.60;;;;;;;;;;5046430;28;20072;-80
2022/07/24 03:41:20;;;;;;;4.35;2.35;;;;;;;;;;5045146;28;20076;-80
2022/07/24 03:44:06;;;;;;;3.80;2.67;;;;;;;;;;5045514;28;20041;-80
2022/07/24 03:46:51;;;;;;;3.67;2.35;;;;;;;;;;5033419;28;20112;-80
2022/07/24 03:49:37;;;;;;;3.30;2.35;;;;;;;;;;5046372;28;20100;-80
2022/07/24 03:52:23;;;;;;;3.90;2.30;;;;;;;;;;5032989;28;20034;-80
2022/07/24 03:55:09;;;;;;;2.78;2.03;;;;;;;;;;5033030;28;20091;-80
2022/07/24 03:57:54;;;;;;;3.40;2.78;;;;;;;;;;5033300;28;20044;-80
2022/07/24 04:00:40;;;;;;;3.75;2.00;;;;;;;;;;5044247;28;20077;-80
2022/07/24 04:03:26;;;;;;;5.03;2.45;;;;;;;;;;5032787;28;20092;-80
2022/07/24 04:06:11;;;;;;;3.90;2.20;;;;;;;;;;5033396;28;20038;-80
2022/07/24 04:08:57;;;;;;;3.33;2.55;;;;;;;;;;5045325;28;20538;-79
2022/07/24 04:11:44;;;;;;;2.83;2.13;;;;;;;;;;5032050;28;20048;-80
2022/07/24 04:14:30;;;;;;;4.95;2.60;;;;;;;;;;5046081;28;20049;-80
2022/07/24 04:17:15;;;;;;;3.25;2.10;;;;;;;;;;5045604;28;20514;-80
2022/07/24 04:20:01;;;;;;;4.28;2.58;;;;;;;;;;5032779;28;20049;-80
2022/07/24 04:22:47;;;;;;;3.22;1.95;;;;;;;;;;5045665;28;20492;-80
2022/07/24 04:25:34;;;;;;;4.10;2.38;;;;;;;;;;5032180;28;20131;-80
2022/07/24 04:28:20;;;;;;;4.25;2.80;;;;;;;;;;5032505;28;20121;-80
2022/07/24 04:31:05;;;;;;;3.25;2.42;;;;;;;;;;5032087;28;20103;-80
2022/07/24 04:33:51;;;;;;;3.20;2.30;;;;;;;;;;5032772;28;20064;-79
2022/07/24 04:36:37;;;;;;;3.10;2.42;;;;;;;;;;5032518;28;20474;-79
2022/07/24 04:39:22;;;;;;;3.22;2.40;;;;;;;;;;5031813;28;20500;-80
2022/07/24 04:42:08;;;;;;;4.45;2.35;;;;;;;;;;5032094;28;20038;-80
2022/07/24 04:44:54;;;;;;;4.45;2.50;;;;;;;;;;5032225;28;20036;-80
2022/07/24 04:47:39;;;;;;;4.13;2.65;;;;;;;;;;5044979;28;20042;-79
2022/07/24 04:50:25;;;;;;;3.10;2.20;;;;;;;;;;5031125;28;20033;-80
2022/07/24 04:53:11;;;;;;;4.72;2.45;;;;;;;;;;5032456;28;20048;-80
2022/07/24 04:55:57;;;;;;;4.20;2.80;;;;;;;;;;5032336;28;20445;-80
2022/07/24 04:58:43;;;;;;;3.95;2.45;;;;;;;;;;5017145;28;20111;-80
2022/07/24 05:01:29;;;;;;;3.40;2.50;;;;;;;;;;5046138;28;20076;-80
2022/07/24 05:04:14;;;;;;;3.58;2.40;;;;;;;;;;5032078;28;20041;-80
2022/07/24 05:07:01;;;;;;;3.92;2.58;;;;;;;;;;5043046;28;20052;-79
2022/07/24 05:09:47;;;;;;;3.85;2.10;;;;;;;;;;5044723;28;20487;-80
2022/07/24 05:12:33;;;;;;;3.05;2.10;;;;;;;;;;5032104;28;20037;-79
2022/07/24 05:15:19;;;;;;;3.72;2.53;;;;;;;;;;5043933;28;20067;-80
2022/07/24 05:18:04;;;;;;;4.07;2.50;;;;;;;;;;5032064;28;20037;-80
2022/07/24 05:20:50;;;;;;;2.65;2.13;;;;;;;;;;5042866;28;20041;-80
2022/07/24 05:23:36;;;;;;;3.10;2.03;;;;;;;;;;5031235;28;20037;-80
2022/07/24 05:26:21;;;;;;;5.72;2.80;;;;;;;;;;5031709;28;20048;-80
2022/07/24 05:29:07;;;;;;;4.13;3.20;;;;;;;;;;5031276;28;20033;-80
2022/07/24 05:31:54;;;;;;;3.20;2.50;;;;;;;;;;5044388;28;20049;-79
2022/07/24 05:34:39;;;;;;;4.57;2.65;;;;;;;;;;5030626;28;20041;-79
2022/07/24 05:37:25;;;;;;;3.47;2.53;;;;;;;;;;5031795;28;20139;-80
2022/07/24 05:40:11;;;;;;;4.10;3.22;;;;;;;;;;5031166;28;20033;-80
2022/07/24 05:42:57;;;;;;;4.13;2.70;;;;;;;;;;5043950;28;20491;-80
2022/07/24 05:45:43;;;;;;;3.53;2.75;;;;;;;;;;5045302;28;20037;-79
2022/07/24 05:48:29;;;;;;;3.63;2.58;;;;;;;;;;5016731;28;20068;-80
2022/07/24 05:51:14;;;;;;;3.75;2.65;;;;;;;;;;5030217;28;20038;-79
2022/07/24 05:54:00;;;;;;;3.55;2.40;;;;;;;;;;5031494;28;20508;-80
2022/07/24 05:56:46;;;;;;;3.50;2.40;;;;;;;;;;5031346;28;20108;-80
2022/07/24 05:59:32;;;;;;;4.22;2.47;;;;;;;;;;5031450;28;20430;-79
2022/07/24 06:02:17;;;;;;;4.38;2.92;;;;;;;;;;5030077;28;20088;-80
2022/07/24 06:05:03;;;;;;;5.65;2.97;;;;;;;;;;5030937;28;20037;-80
2022/07/24 06:07:49;;;;;;;3.67;2.65;;;;;;;;;;5031532;28;20037;-80
2022/07/24 06:10:35;;;;;;;3.72;2.33;;;;;;;;;;5043789;28;20092;-80
2022/07/24 06:13:21;;;;;;;5.22;2.90;;;;;;;;;;5043584;28;20053;-80
2022/07/24 06:16:06;;;;;;;3.50;2.67;;;;;;;;;;5031034;28;20042;-79
2022/07/24 06:18:53;;;;;;;3.25;2.20;;;;;;;;;;5044206;28;20195;-80
2022/07/24 06:21:38;;;;;;;4.57;3.00;;;;;;;;;;5031266;28;20045;-80
2022/07/24 06:24:24;;;;;;;3.88;2.53;;;;;;;;;;5031479;28;20041;-80
2022/07/24 06:27:10;;;;;;;3.60;2.50;;;;;;;;;;5044798;28;20526;-80
2022/07/24 06:29:55;;;;;;;4.10;2.33;;;;;;;;;;5042702;28;20057;-80
2022/07/24 06:32:41;;;;;;;3.53;2.80;;;;;;;;;;5032637;28;20037;-79
2022/07/24 06:35:27;;;;;;;3.80;2.20;;;;;;;;;;5048985;28;20044;-80
2022/07/24 06:38:13;;;;;;;3.60;2.80;;;;;;;;;;5034834;28;20091;-80
2022/07/24 06:40:59;;;;;;;4.18;2.50;;;;;;;;;;5033415;28;20503;-80
2022/07/24 06:43:44;;;;;;;4.45;3.03;;;;;;;;;;5034738;28;20060;-79
2022/07/24 06:46:30;;;;;;;3.05;2.28;;;;;;;;;;5034207;28;20052;-80
2022/07/24 06:49:16;;;;;;;4.57;2.88;;;;;;;;;;5034535;28;20044;-80
2022/07/24 06:52:02;;;;;;;4.05;2.80;;;;;;;;;;5033674;28;20037;-80
2022/07/24 06:54:48;;;;;;;6.68;3.38;;;;;;;;;;5046470;28;20041;-79
2022/07/24 06:57:34;;;;;;;3.47;2.45;;;;;;;;;;5047075;28;20037;-80
2022/07/24 07:00:19;;;;;;;3.75;2.80;;;;;;;;;;5033712;28;20034;-80
2022/07/24 07:03:05;;;;;;;4.10;2.65;;;;;;;;;;5033203;28;20049;-79
2022/07/24 07:05:51;;;;;;;4.25;3.08;;;;;;;;;;5034452;28;20404;-80
2022/07/24 07:08:37;;;;;;;3.65;2.47;;;;;;;;;;5046134;28;20045;-80
2022/07/24 07:11:22;;;;;;;4.03;2.50;;;;;;;;;;5034569;28;20049;-80
2022/07/24 07:14:08;;;;;;;4.78;3.10;;;;;;;;;;5033899;28;20049;-80
2022/07/24 07:16:54;;;;;;;4.20;3.00;;;;;;;;;;5033825;28;20040;-80
2022/07/24 07:19:39;;;;;;;3.97;2.45;;;;;;;;;;5047489;28;20435;-80
2022/07/24 07:22:25;;;;;;;2.75;2.28;;;;;;;;;;5046330;28;20037;-80
2022/07/24 07:25:11;;;;;;;4.32;2.63;;;;;;;;;;5033734;28;20029;-80
2022/07/24 07:27:57;;;;;;;3.55;2.53;;;;;;;;;;5034113;28;20045;-79
2022/07/24 07:30:42;;;;;;;4.70;2.90;;;;;;;;;;5033646;28;20117;-80
2022/07/24 07:33:28;;;;;;;3.58;3.15;;;;;;;;;;5047425;28;20048;-80
2022/07/24 07:36:14;;;;;;;3.70;2.50;;;;;;;;;;5033357;28;20033;-79
2022/07/24 07:38:59;;;;;;;3.17;2.40;;;;;;;;;;5033837;28;20037;-80
2022/07/24 07:41:45;;;;;;;2.92;2.25;;;;;;;;;;5032816;28;20033;-80
2022/07/24 07:44:31;;;;;;;3.50;2.45;;;;;;;;;;5043747;28;20446;-80
2022/07/24 07:47:17;;;;;;;4.22;2.58;;;;;;;;;;5047446;28;20037;-80
2022/07/24 07:50:03;;;;;;;3.50;2.50;;;;;;;;;;5033414;28;20056;-79
2022/07/24 07:52:49;;;;;;;3.88;3.25;;;;;;;;;;5033354;28;20038;-80
2022/07/24 07:55:35;;;;;;;3.45;2.45;;;;;;;;;;5047262;28;20045;-80
2022/07/24 07:58:22;;;;;;;2.95;2.53;;;;;;;;;;5045174;28;20420;-80
2022/07/24 08:01:08;;;;;;;3.50;2.65;;;;;;;;;;5044863;28;20053;-80
2022/07/24 08:03:53;;;;;;;5.53;2.88;;;;;;;;;;5046429;28;20042;-80
2022/07/24 08:06:39;;;;;;;3.60;2.75;;;;;;;;;;5032793;28;20412;-80
2022/07/24 08:09:25;;;;;;;3.75;2.67;;;;;;;;;;5045680;28;20427;-80
2022/07/24 08:12:10;;;;;;;3.45;2.63;;;;;;;;;;5033522;28;20414;-80
2022/07/24 08:14:56;;;;;;;3.58;2.65;;;;;;;;;;5046724;28;20036;-80
2022/07/24 08:17:42;;;;;;;3.03;2.40;;;;;;;;;;5045786;28;20045;-80
2022/07/24 08:20:28;;;;;;;3.78;2.88;;;;;;;;;;5032937;28;20523;-80
2022/07/24 08:23:13;;;;;;;6.32;2.97;;;;;;;;;;5032630;28;20423;-80
2022/07/24 08:25:59;;;;;;;3.10;2.55;;;;;;;;;;5046006;28;20045;-80
2022/07/24 08:28:45;;;;;;;3.10;2.42;;;;;;;;;;5033345;28;20044;-80
2022/07/24 08:31:31;;;;;;;3.30;2.35;;;;;;;;;;5032879;28;20046;-80
2022/07/24 08:34:16;;;;;;;3.45;2.60;;;;;;;;;;5032898;28;20053;-80
2022/07/24 08:37:02;;;;;;;3.40;2.42;;;;;;;;;;5045843;28;20036;-80
2022/07/24 08:39:48;;;;;;;3.13;2.40;;;;;;;;;;5033761;28;20041;-80
2022/07/24 08:42:35;;;;;;;3.22;2.42;;;;;;;;;;5046363;28;20042;-80
2022/07/24 08:45:20;;;;;;;3.10;2.35;;;;;;;;;;5045964;28;20499;-80
2022/07/24 08:48:08;;;;;;;3.83;2.47;;;;;;;;;;5032376;28;20036;-80
2022/07/24 08:50:54;;;;;;;3.83;2.63;;;;;;;;;;5030197;28;20392;-80
2022/07/24 08:53:39;;;;;;;2.95;2.30;;;;;;;;;;5031895;28;20103;-80
2022/07/24 08:56:25;;;;;;;2.85;2.50;;;;;;;;;;5032248;28;20064;-80
2022/07/24 08:59:21;;;;;;;2.80;2.08;;;;;;;;;;5032171;28;20037;-80
2022/07/24 09:02:07;;;;;;;2.83;2.20;;;;;;;;;;5045174;28;20079;-81
2022/07/24 09:04:57;;;;;;;3.15;2.38;;;;;;;;;;5029944;28;20041;-79
2022/07/24 09:07:43;;;;;;;3.92;2.70;;;;;;;;;;5045322;28;20034;-80
2022/07/24 09:10:29;;;;;;;3.75;2.90;;;;;;;;;;5044542;28;20045;-80
2022/07/24 09:13:16;;;;;;;3.65;2.58;;;;;;;;;;5045291;28;20042;-80
2022/07/24 09:16:02;;;;;;;4.80;2.67;;;;;;;;;;5045409;28;20397;-80
2022/07/24 09:18:48;;;;;;;3.38;2.42;;;;;;;;;;5045037;28;20052;-80
2022/07/24 09:21:35;;;;;;;3.28;2.20;;;;;;;;;;5030996;28;20148;-80
2022/07/24 09:24:21;;;;;;;4.65;2.25;;;;;;;;;;5030726;28;20051;-79
2022/07/24 09:27:07;;;;;;;3.15;2.75;;;;;;;;;;5044857;28;20049;-80
2022/07/24 09:29:52;;;;;;;3.75;2.70;;;;;;;;;;5044757;28;20033;-80
2022/07/24 09:32:38;;;;;;;3.63;2.80;;;;;;;;;;5045060;28;20041;-83
2022/07/24 09:35:31;;;;;;;3.42;2.30;;;;;;;;;;5044798;28;20044;-80
2022/07/24 09:38:18;;;;;;;3.88;2.60;;;;;;;;;;5031660;28;20076;-81
2022/07/24 09:41:04;;;;;;;3.10;2.30;;;;;;;;;;5044324;28;20034;-80
2022/07/24 09:44:00;;;;;;;3.80;2.70;;;;;;;;;;5029882;28;20038;-80
2022/07/24 09:46:47;;;;;;;4.18;2.65;;;;;;;;;;5044855;28;20040;-80
2022/07/24 09:49:33;;;;;;;3.33;2.60;;;;;;;;;;5044726;28;20492;-80
2022/07/24 09:52:19;;;;;;;3.10;2.63;;;;;;;;;;5032520;28;20041;-80
2022/07/24 09:55:09;;;;;;;3.70;3.00;;;;;;;;;;5030958;28;20041;-81
2022/07/24 09:57:55;;;;;;;3.90;2.90;;;;;;;;;;5031326;28;20494;-80
2022/07/24 10:00:41;;;;;;;3.40;2.45;;;;;;;;;;5030026;28;20048;-80
2022/07/24 10:03:31;;;;;;;2.78;2.15;;;;;;;;;;5044608;28;20049;-81
2022/07/24 10:06:19;;;;;;;4.15;2.75;;;;;;;;;;5044985;28;20042;-81
2022/07/24 10:09:05;;;;;;;4.68;2.70;;;;;;;;;;5048648;28;20558;-81
2022/07/24 10:11:51;;;;;;;3.38;2.60;;;;;;;;;;5035434;28;20512;-83
2022/07/24 10:14:38;;;;;;;3.85;2.38;;;;;;;;;;5034135;28;20045;-80
2022/07/24 10:17:37;;;;;;;5.30;2.55;;;;;;;;;;5020684;28;20462;-80
2022/07/24 10:20:39;;;;;;;4.10;2.88;;;;;;;;;;5048660;28;20041;-80
2022/07/24 10:23:25;;;;;;;;;;;;;;;;;;5049602;28;20037;-81
2022/07/24 10:26:11;;;;;;;4.35;2.50;;;;;;;;;;5049867;28;19913;-80
2022/07/24 10:28:59;;;;;;;4.00;2.97;;;;;;;;;;5047302;28;20581;-80
2022/07/24 10:31:50;;;;;;;3.65;2.40;;;;;;;;;;5047535;28;20103;-80
2022/07/24 10:34:54;;;;;;;3.03;2.28;;;;;;;;;;5048004;28;20049;-80
2022/07/24 10:37:48;;;;;;;3.60;2.50;;;;;;;;;;5048822;28;20509;-80
2022/07/24 10:41:05;;;;;;;3.97;2.80;;;;;;;;;;5034881;28;20030;-80
2022/07/24 10:44:18;;;;;;;3.83;2.83;;;;;;;;;;5021767;28;20046;-80
2022/07/24 10:47:04;;;;;;;4.18;2.60;;;;;;;;;;5047204;28;20479;-80
2022/07/24 10:49:50;;;;;;;3.28;2.40;;;;;;;;;;5048419;28;20041;-80
2022/07/24 10:52:42;;;;;;;3.22;2.50;;;;;;;;;;5047243;28;20072;-80
2022/07/24 10:55:32;;;;;;;2.60;2.28;;;;;;;;;;5047828;28;20120;-80
2022/07/24 10:58:21;;;;;;;4.63;3.38;;;;;;;;;;5048379;28;20396;-81
2022/07/24 11:01:31;;;;;;;3.03;2.00;;;;;;;;;;5033427;28;20136;-81
2022/07/24 11:04:23;;;;;;;2.78;2.28;;;;;;;;;;5033377;28;20132;-80
2022/07/24 11:07:12;;;;;;;3.92;2.50;;;;;;;;;;5034434;28;20060;-81
2022/07/24 11:10:07;;;;;;;3.30;2.50;;;;;;;;;;5033383;28;20116;-80
2022/07/24 11:12:53;;;;;;;3.75;2.25;;;;;;;;;;5020356;28;20056;-80
2022/07/24 11:16:11;;;;;;;2.63;2.20;;;;;;;;;;5033729;28;20044;-81
2022/07/24 11:18:57;;;;;;;2.85;2.17;;;;;;;;;;5031139;28;20049;-81
2022/07/24 11:21:44;;;;;;;3.72;2.15;;;;;;;;;;5033464;28;20503;-81
2022/07/24 11:24:30;;;;;;;3.28;2.28;;;;;;;;;;5047136;28;20042;-81
2022/07/24 11:27:17;;;;;;;3.72;2.20;;;;;;;;;;5047725;28;20042;-80
2022/07/24 11:30:04;;;;;;;3.58;2.40;;;;;;;;;;5046656;28;20091;-81
2022/07/24 11:32:49;;;;;;;2.75;2.00;;;;;;;;;;5030995;28;20520;-80
2022/07/24 11:35:36;;;;;;;4.22;2.47;;;;;;;;;;5046585;28;20471;-80
2022/07/24 11:38:28;;;;;;;3.15;2.70;;;;;;;;;;5046372;28;20034;-81
2022/07/24 11:41:13;;;;;;;;;;;;;;;;;;5046684;28;20482;-81
2022/07/24 11:43:59;;;;;;;4.05;2.58;;;;;;;;;;5046180;28;19916;-81
2022/07/24 11:46:45;;;;;;;4.53;2.30;;;;;;;;;;5022028;28;20092;-81
2022/07/24 11:49:30;;;;;;;4.07;2.20;;;;;;;;;;5026208;28;20077;-81
2022/07/24 11:52:18;;;;;;;5.70;4.13;;;;;;;;;;5018029;28;20038;-81
2022/07/24 11:55:06;;;;;;;10.25;7.72;;;;;;;;;;5017817;28;20610;-81
2022/07/24 11:57:53;;;;;;;7.45;5.75;;;;;;;;;;5015573;28;20091;-81
2022/07/24 12:00:40;;;;;;;7.60;5.28;;;;;;;;;;5017210;28;20049;-82
2022/07/24 12:03:27;;;;;;;5.45;4.72;;;;;;;;;;5016407;28;20049;-82
2022/07/24 12:06:14;;;;;;;6.78;5.25;;;;;;;;;;5019575;28;20040;-82
2022/07/24 12:09:07;;;;;;;7.45;4.80;;;;;;;;;;5016499;28;20166;-82
2022/07/24 12:11:53;;;;;;;6.25;4.50;;;;;;;;;;5033010;28;20041;-83
2022/07/24 12:14:38;;;;;;;5.40;4.30;;;;;;;;;;5044973;28;20048;-82
2022/07/24 12:17:24;;;;;;;5.13;4.00;;;;;;;;;;5045173;28;20045;-82
2022/07/24 12:20:10;;;;;;;5.15;3.75;;;;;;;;;;5015955;28;20045;-82
2022/07/24 12:22:56;;;;;;;5.90;4.15;;;;;;;;;;5017152;28;20045;-81
2022/07/24 12:25:42;;;;;;;6.10;4.55;;;;;;;;;;5018048;28;20037;-82
2022/07/24 12:28:28;;;;;;;5.85;4.72;;;;;;;;;;5017042;28;20034;-82
2022/07/24 12:31:14;;;;;;;10.57;7.97;;;;;;;;;;4999341;28;20411;-82
2022/07/24 12:34:01;;;;;;;13.13;10.43;;;;;;;;;;4998029;28;20141;-87
2022/07/24 12:36:48;;;;;;;6.25;5.38;;;;;;;;;;5015701;28;20115;-87
2022/07/24 12:39:33;;;;;;;8.85;6.15;;;;;;;;;;5025107;28;20038;-90
2022/07/24 12:42:37;;;;;;;6.43;4.45;;;;;;;;;;5041300;28;20037;-88
2022/07/24 12:45:23;;;;;;;6.32;3.65;;;;;;;;;;5032266;28;20033;-86
2022/07/24 12:48:19;;;;;;;5.85;2.85;;;;;;;;;;5032485;28;20056;-86
2022/07/24 12:51:10;;;;;;;4.47;2.47;;;;;;;;;;5013042;28;20042;-84
2022/07/24 12:53:56;;;;;;;5.72;2.92;;;;;;;;;;5017902;28;20511;-83
2022/07/24 12:56:42;;;;;;;5.35;3.22;;;;;;;;;;5016483;28;20081;-83
2022/07/24 12:59:49;;;;;;;55.72;41.15;;;;;;;;;;5045255;28;20049;-83
2022/07/24 13:02:35;;;;;;;16.33;13.18;;;;;;;;;;5018843;28;20034;-83
2022/07/24 13:05:56;;;;;;;18.70;14.65;;;;;;;;;;5015457;28;20048;-82
2022/07/24 13:08:42;;;;;;;17.92;12.95;;;;;;;;;;4924722;29;20027;-82
2022/07/24 13:11:28;;;;;;;19.85;14.98;;;;;;;;;;5016711;28;20423;-82
2022/07/24 13:14:14;;;;;;;21.00;14.95;;;;;;;;;;5016617;28;20049;-82
2022/07/24 13:17:12;;;;;;;18.80;14.38;;;;;;;;;;5017884;28;20452;-82
2022/07/24 13:19:58;;;;;;;20.58;14.90;;;;;;;;;;5016705;28;20412;-82
2022/07/24 13:22:44;;;;;;;19.50;15.55;;;;;;;;;;5016894;28;20076;-82
2022/07/24 13:25:29;;;;;;;20.38;15.00;;;;;;;;;;5016447;28;20033;-82
2022/07/24 13:28:15;;;;;;;17.23;13.85;;;;;;;;;;5016408;28;20037;-82
2022/07/24 13:31:01;;;;;;;19.75;14.50;;;;;;;;;;5016417;28;20461;-82
2022/07/24 13:33:47;;;;;;;15.70;13.48;;;;;;;;;;5016551;28;20464;-82
2022/07/24 13:36:34;;;;;;;18.65;14.48;;;;;;;;;;5017180;28;20503;-82
2022/07/24 13:39:20;;;;;;;18.92;14.40;;;;;;;;;;5016498;28;20148;-82
2022/07/24 13:42:06;;;;;;;17.50;13.60;;;;;;;;;;5015695;28;20555;-82
2022/07/24 13:44:51;;;;;;;17.50;13.68;;;;;;;;;;5016292;28;20095;-82
2022/07/24 13:47:37;;;;;;;19.35;13.60;;;;;;;;;;5016280;28;20103;-82
2022/07/24 13:50:23;;;;;;;16.40;11.95;;;;;;;;;;5002837;28;20041;-82
2022/07/24 13:53:09;;;;;;;18.13;13.05;;;;;;;;;;5016614;28;20107;-83
2022/07/24 13:55:54;;;;;;;17.42;12.52;;;;;;;;;;5016085;28;20060;-84
2022/07/24 13:58:41;;;;;;;16.67;12.73;;;;;;;;;;5017322;28;20140;-83
2022/07/24 14:01:27;;;;;;;16.42;12.07;;;;;;;;;;5003388;28;20041;-84
2022/07/24 14:04:13;;;;;;;15.98;12.77;;;;;;;;;;5015777;28;20042;-83
2022/07/24 14:06:59;;;;;;;15.20;11.32;;;;;;;;;;5017416;28;20040;-82
2022/07/24 14:09:45;;;;;;;14.10;11.07;;;;;;;;;;5016372;28;20526;-82
2022/07/24 14:12:30;;;;;;;14.77;11.00;;;;;;;;;;5016138;28;20056;-82
2022/07/24 14:15:16;;;;;;;15.00;11.68;;;;;;;;;;5029473;28;20045;-82
2022/07/24 14:18:02;;;;;;;13.50;10.63;;;;;;;;;;5015134;28;20033;-82
2022/07/24 14:20:48;;;;;;;12.80;10.30;;;;;;;;;;5016638;28;20479;-82
2022/07/24 14:23:34;;;;;;;12.15;9.95;;;;;;;;;;5015758;28;20038;-82
2022/07/24 14:26:19;;;;;;;12.25;9.70;;;;;;;;;;5017557;28;20080;-82
2022/07/24 14:29:05;;;;;;;12.65;9.45;;;;;;;;;;5017365;28;20033;-82
2022/07/24 14:31:51;;;;;;;14.25;10.48;;;;;;;;;;5017150;28;20038;-82
2022/07/24 14:34:37;;;;;;;12.02;9.00;;;;;;;;;;5016917;28;20491;-82
2022/07/24 14:37:22;;;;;;;13.15;9.85;;;;;;;;;;5016893;28;20037;-82
2022/07/24 14:40:09;;;;;;;12.07;9.43;;;;;;;;;;5027648;28;20030;-82
2022/07/24 14:42:55;;;;;;;11.68;9.02;;;;;;;;;;5018335;28;20046;-81
2022/07/24 14:45:40;;;;;;;11.70;8.57;;;;;;;;;;5015376;28;20050;-82
2022/07/24 14:48:26;;;;;;;10.07;8.32;;;;;;;;;;5017823;28;20044;-81
2022/07/24 14:51:12;;;;;;;10.60;8.38;;;;;;;;;;5016922;28;20095;-82
2022/07/24 14:53:57;;;;;;;11.80;9.35;;;;;;;;;;5017850;28;20034;-81
2022/07/24 14:56:43;;;;;;;11.57;8.88;;;;;;;;;;5018389;28;20040;-82
2022/07/24 14:59:29;;;;;;;10.85;8.48;;;;;;;;;;5019125;28;20091;-81
2022/07/24 15:02:15;;;;;;;10.05;7.88;;;;;;;;;;5020302;28;20048;-82
2022/07/24 15:05:00;;;;;;;9.60;7.47;;;;;;;;;;5019223;28;20073;-82
2022/07/24 15:07:47;;;;;;;10.15;8.10;;;;;;;;;;5018597;28;20041;-81
2022/07/24 15:10:32;;;;;;;9.05;6.75;;;;;;;;;;5019353;28;20080;-82
2022/07/24 15:13:18;;;;;;;10.45;7.78;;;;;;;;;;5019476;28;20045;-82
2022/07/24 15:16:04;;;;;;;9.50;7.20;;;;;;;;;;5018472;28;20039;-83
2022/07/24 15:18:50;;;;;;;9.57;7.05;;;;;;;;;;5020477;28;20496;-83
2022/07/24 15:21:36;;;;;;;10.10;6.95;;;;;;;;;;5018253;28;20504;-82
2022/07/24 15:24:22;;;;;;;8.93;6.80;;;;;;;;;;5019538;28;20071;-82
2022/07/24 15:27:07;;;;;;;8.57;6.95;;;;;;;;;;5018510;28;20041;-83
2022/07/24 15:29:53;;;;;;;7.72;6.20;;;;;;;;;;5018993;28;20041;-82
2022/07/24 15:32:39;;;;;;;7.78;5.95;;;;;;;;;;5019095;28;20048;-82
2022/07/24 15:35:24;;;;;;;7.78;6.00;;;;;;;;;;5019240;28;20048;-82
2022/07/24 15:38:10;;;;;;;8.23;6.22;;;;;;;;;;5004792;28;20034;-82
2022/07/24 15:40:56;;;;;;;7.43;5.57;;;;;;;;;;5018173;28;20423;-82
2022/07/24 15:43:42;;;;;;;7.90;5.70;;;;;;;;;;5004626;28;20128;-82
2022/07/24 15:46:28;;;;;;;7.30;5.97;;;;;;;;;;5021003;28;20038;-82
2022/07/24 15:49:13;;;;;;;8.10;5.43;;;;;;;;;;5004801;28;20026;-82
2022/07/24 15:51:59;;;;;;;8.13;6.15;;;;;;;;;;5018438;28;20469;-82
2022/07/24 15:54:45;;;;;;;7.50;5.10;;;;;;;;;;5018580;28;20412;-82
2022/07/24 15:57:30;;;;;;;6.00;4.95;;;;;;;;;;5020340;28;20045;-81
2022/07/24 16:00:16;;;;;;;6.95;4.88;;;;;;;;;;5019619;28;20049;-82
2022/07/24 16:03:03;;;;;;;7.03;4.90;;;;;;;;;;5018394;28;20042;-82
2022/07/24 16:05:48;;;;;;;6.45;5.00;;;;;;;;;;5032563;28;20040;-82
2022/07/24 16:08:34;;;;;;;5.68;4.40;;;;;;;;;;5018947;28;20036;-82
2022/07/24 16:11:20;;;;;;;6.60;4.90;;;;;;;;;;5004446;28;20045;-82
2022/07/24 16:14:06;;;;;;;6.70;4.72;;;;;;;;;;5018100;28;20046;-82
2022/07/24 16:16:52;;;;;;;6.65;4.35;;;;;;;;;;5005139;28;20044;-82
2022/07/24 16:19:37;;;;;;;6.28;4.60;;;;;;;;;;5020039;28;20032;-82
2022/07/24 16:22:23;;;;;;;5.55;4.07;;;;;;;;;;5016796;28;20050;-82
2022/07/24 16:25:09;;;;;;;6.07;4.65;;;;;;;;;;5019052;28;20034;-82
2022/07/24 16:27:55;;;;;;;6.43;4.03;;;;;;;;;;5019723;28;20041;-82
2022/07/24 16:30:40;;;;;;;6.38;4.45;;;;;;;;;;5017522;28;20565;-82
2022/07/24 16:33:26;;;;;;;5.97;4.57;;;;;;;;;;5017831;28;20038;-81
2022/07/24 16:36:12;;;;;;;6.03;4.13;;;;;;;;;;5017113;28;20072;-82